createdAt,value
2018-08-16T00:00:36.592Z,17.00
2018-08-16T00:04:32.218Z,16.90
2018-08-16T00:07:01.632Z,17.00
2018-08-16T00:09:31.003Z,17.40
2018-08-16T00:14:29.517Z,17.40
2018-08-16T00:25:07.921Z,16.80
2018-08-16T00:27:37.158Z,16.80
2018-08-16T00:30:11.492Z,16.60
2018-08-16T00:35:09.868Z,16.50
2018-08-16T00:37:39.067Z,17.00
2018-08-16T00:45:09.861Z,16.70
2018-08-16T00:47:39.111Z,16.40
2018-08-16T00:50:10.594Z,17.00
2018-08-16T00:52:39.882Z,16.50
2018-08-16T00:55:10.701Z,17.00
2018-08-16T00:57:40.103Z,16.50
2018-08-16T01:02:40.351Z,16.90
2018-08-16T01:05:09.625Z,16.90
2018-08-16T01:07:38.909Z,16.60
2018-08-16T01:10:10.421Z,16.60
2018-08-16T01:12:39.685Z,16.70
2018-08-16T01:17:40.129Z,16.90
2018-08-16T01:20:09.662Z,16.40
2018-08-16T01:22:39.201Z,16.30
2018-08-16T01:25:09.990Z,16.20
2018-08-16T01:27:39.306Z,16.40
2018-08-16T01:32:38.720Z,16.10
2018-08-16T01:35:08.793Z,16.40
2018-08-16T01:40:15.089Z,16.40
2018-08-16T01:45:14.733Z,16.40
2018-08-16T01:47:43.990Z,16.50
2018-08-16T01:50:13.238Z,16.10
2018-08-16T01:52:42.447Z,16.20
2018-08-16T01:55:11.712Z,16.10
2018-08-16T01:57:40.907Z,17.20
2018-08-16T02:00:10.746Z,16.60
2018-08-16T02:02:40.077Z,15.90
2018-08-16T02:05:09.509Z,16.30
2018-08-16T02:15:11.298Z,16.10
2018-08-16T02:20:13.783Z,16.60
2018-08-16T02:25:13.696Z,16.00
2018-08-16T02:27:43.609Z,15.80
2018-08-16T02:30:13.559Z,15.80
2018-08-16T02:32:43.542Z,16.40
2018-08-16T02:35:12.802Z,16.00
2018-08-16T02:37:42.016Z,16.40
2018-08-16T02:40:11.265Z,16.00
2018-08-16T02:42:40.463Z,16.10
2018-08-16T02:45:09.710Z,16.60
2018-08-16T02:47:38.920Z,15.90
2018-08-16T02:50:08.461Z,15.80
2018-08-16T02:52:37.699Z,15.60
2018-08-16T02:57:36.423Z,16.30
2018-08-16T03:02:35.927Z,16.20
2018-08-16T03:05:06.417Z,16.30
2018-08-16T03:07:36.120Z,16.30
2018-08-16T03:10:07.181Z,16.30
2018-08-16T03:12:36.406Z,15.60
2018-08-16T03:17:36.480Z,15.70
2018-08-16T03:20:06.284Z,15.60
2018-08-16T03:27:33.642Z,15.70
2018-08-16T03:30:02.887Z,15.90
2018-08-16T03:32:32.097Z,16.00
2018-08-16T03:37:30.584Z,15.80
2018-08-16T03:42:28.845Z,16.10
2018-08-16T03:44:58.079Z,16.10
2018-08-16T03:47:27.304Z,15.80
2018-08-16T03:49:56.628Z,15.90
2018-08-16T03:52:25.911Z,15.40
2018-08-16T03:54:55.129Z,15.80
2018-08-16T03:57:24.413Z,15.70
2018-08-16T03:59:53.627Z,16.10
2018-08-16T04:02:22.836Z,15.90
2018-08-16T04:04:52.117Z,15.70
2018-08-16T04:14:48.566Z,15.90
2018-08-16T04:22:15.846Z,15.60
2018-08-16T04:24:45.127Z,16.10
2018-08-16T04:27:14.422Z,15.70
2018-08-16T04:32:12.711Z,16.20
2018-08-16T04:37:10.999Z,15.90
2018-08-16T04:39:40.242Z,16.50
2018-08-16T04:42:09.494Z,16.40
2018-08-16T04:44:38.807Z,16.10
2018-08-16T04:49:37.134Z,16.60
2018-08-16T04:54:35.744Z,16.70
2018-08-16T04:57:05.187Z,16.70
2018-08-16T04:59:34.409Z,17.00
2018-08-16T05:02:03.593Z,16.90
2018-08-16T05:04:32.838Z,16.60
2018-08-16T05:07:02.053Z,17.10
2018-08-16T05:09:31.302Z,17.00
2018-08-16T05:12:00.511Z,16.90
2018-08-16T05:19:27.736Z,17.30
2018-08-16T05:21:56.973Z,17.70
2018-08-16T05:24:26.575Z,17.60
2018-08-16T05:26:55.781Z,17.70
2018-08-16T05:29:24.999Z,18.20
2018-08-16T05:31:54.229Z,17.80
2018-08-16T05:34:23.434Z,18.00
2018-08-16T05:36:52.689Z,18.00
2018-08-16T05:39:21.941Z,18.00
2018-08-16T05:41:51.157Z,17.80
2018-08-16T05:46:49.376Z,18.50
2018-08-16T05:49:18.723Z,18.60
2018-08-16T05:51:47.993Z,18.80
2018-08-16T05:56:46.221Z,19.20
2018-08-16T05:59:15.522Z,19.00
2018-08-16T06:01:44.740Z,19.60
2018-08-16T06:04:13.983Z,19.60
2018-08-16T06:06:43.209Z,19.90
2018-08-16T06:09:12.672Z,20.00
2018-08-16T06:11:42.033Z,20.40
2018-08-16T06:14:11.293Z,20.20
2018-08-16T06:16:40.541Z,20.50
2018-08-16T06:19:09.761Z,20.60
2018-08-16T06:24:08.065Z,20.70
2018-08-16T06:26:37.163Z,21.30
2018-08-16T06:29:06.436Z,21.30
2018-08-16T06:31:35.722Z,21.50
2018-08-16T06:34:05.066Z,21.50
2018-08-16T06:39:03.993Z,21.90
2018-08-16T06:41:33.275Z,21.80
2018-08-16T06:44:02.519Z,22.10
2018-08-16T06:46:31.802Z,22.00
2018-08-16T06:49:01.172Z,22.30
2018-08-16T06:56:28.580Z,22.50
2018-08-16T07:01:26.766Z,22.10
2018-08-16T07:03:56.015Z,22.90
2018-08-16T07:06:25.233Z,23.40
2018-08-16T07:08:54.511Z,23.30
2018-08-16T07:11:23.827Z,23.30
2018-08-16T07:13:53.128Z,23.30
2018-08-16T07:18:51.455Z,23.50
2018-08-16T07:21:20.629Z,23.50
2018-08-16T07:26:18.865Z,23.70
2018-08-16T07:31:16.996Z,23.80
2018-08-16T07:33:46.231Z,23.90
2018-08-16T07:36:15.457Z,23.90
2018-08-16T07:38:44.645Z,23.90
2018-08-16T07:43:42.862Z,24.00
2018-08-16T07:51:10.169Z,25.00
2018-08-16T07:53:39.431Z,25.10
2018-08-16T07:56:08.702Z,24.60
2018-08-16T07:58:37.876Z,25.00
2018-08-16T08:01:07.110Z,25.30
2018-08-16T08:03:36.354Z,24.70
2018-08-16T08:06:05.630Z,24.80
2018-08-16T08:08:34.801Z,25.60
2018-08-16T08:13:33.017Z,25.40
2018-08-16T08:16:02.219Z,25.70
2018-08-16T08:18:31.507Z,26.10
2018-08-16T08:23:29.698Z,25.70
2018-08-16T08:25:58.902Z,25.80
2018-08-16T08:28:28.137Z,26.50
2018-08-16T08:30:57.420Z,25.80
2018-08-16T08:36:12.592Z,26.30
2018-08-16T08:38:41.909Z,26.20
2018-08-16T08:43:57.354Z,26.20
2018-08-16T08:46:26.645Z,26.60
2018-08-16T08:48:55.868Z,26.60
2018-08-16T08:51:25.141Z,26.90
2018-08-16T08:54:40.047Z,26.50
2018-08-16T08:57:26.470Z,26.40
2018-08-16T08:59:55.718Z,26.80
2018-08-16T09:04:53.929Z,26.60
2018-08-16T09:07:23.484Z,26.80
2018-08-16T09:13:59.137Z,26.60
2018-08-16T09:16:34.548Z,27.00
2018-08-16T09:19:04.362Z,26.70
2018-08-16T09:21:34.109Z,26.80
2018-08-16T09:24:03.611Z,27.20
2018-08-16T09:30:36.138Z,27.00
2018-08-16T09:34:20.075Z,27.20
2018-08-16T09:36:49.688Z,26.50
2018-08-16T09:39:19.191Z,26.00
2018-08-16T09:41:48.386Z,26.50
2018-08-16T09:51:59.578Z,26.10
2018-08-16T09:54:28.893Z,26.00
2018-08-16T09:56:59.639Z,26.30
2018-08-16T09:59:28.892Z,26.10
2018-08-16T10:01:58.197Z,26.00
2018-08-16T10:16:56.327Z,26.00
2018-08-16T10:21:55.357Z,25.40
2018-08-16T10:29:22.633Z,25.60
2018-08-16T10:34:20.893Z,25.80
2018-08-16T10:36:50.118Z,25.90
2018-08-16T10:39:19.661Z,26.30
2018-08-16T10:41:48.831Z,26.00
2018-08-16T10:44:18.109Z,26.00
2018-08-16T10:49:16.387Z,26.30
2018-08-16T10:51:45.650Z,25.80
2018-08-16T10:56:43.861Z,26.10
2018-08-16T10:59:13.149Z,25.80
2018-08-16T11:01:42.364Z,26.50
2018-08-16T11:04:11.623Z,26.60
2018-08-16T11:06:40.966Z,26.40
2018-08-16T11:09:10.778Z,25.80
2018-08-16T11:16:38.440Z,26.30
2018-08-16T11:26:34.689Z,25.90
2018-08-16T11:29:03.930Z,26.40
2018-08-16T11:31:33.157Z,26.00
2018-08-16T11:34:02.423Z,26.00
2018-08-16T11:39:00.585Z,26.60
2018-08-16T11:41:29.777Z,26.20
2018-08-16T11:43:58.997Z,26.40
2018-08-16T11:48:57.316Z,26.60
2018-08-16T11:51:26.795Z,26.30
2018-08-16T11:53:56.010Z,26.10
2018-08-16T11:56:25.226Z,26.40
2018-08-16T12:01:23.453Z,25.90
2018-08-16T12:06:21.940Z,26.10
2018-08-16T12:08:51.131Z,26.30
2018-08-16T12:13:49.342Z,26.70
2018-08-16T12:16:18.575Z,26.60
2018-08-16T12:18:47.852Z,25.50
2018-08-16T12:21:17.091Z,26.90
2018-08-16T12:23:46.348Z,26.30
2018-08-16T12:26:15.647Z,26.80
2018-08-16T12:31:13.919Z,26.40
2018-08-16T12:33:43.165Z,26.50
2018-08-16T12:38:41.460Z,25.90
2018-08-16T12:43:39.714Z,26.60
2018-08-16T12:48:37.924Z,26.50
2018-08-16T12:51:07.479Z,26.30
2018-08-16T12:53:36.763Z,26.50
2018-08-16T12:56:06.036Z,27.00
2018-08-16T12:58:35.349Z,26.60
2018-08-16T13:01:04.513Z,26.60
2018-08-16T13:03:33.783Z,26.70
2018-08-16T13:06:03.065Z,26.40
2018-08-16T13:08:32.250Z,26.40
2018-08-16T13:11:02.256Z,26.60
2018-08-16T13:13:31.677Z,26.60
2018-08-16T13:16:00.908Z,27.00
2018-08-16T13:18:30.446Z,26.60
2018-08-16T13:25:57.802Z,26.40
2018-08-16T13:30:55.950Z,26.50
2018-08-16T13:33:25.165Z,26.70
2018-08-16T13:35:54.341Z,26.00
2018-08-16T13:40:52.557Z,26.80
2018-08-16T13:43:21.806Z,25.90
2018-08-16T13:45:51.050Z,26.10
2018-08-16T13:48:20.377Z,26.20
2018-08-16T13:50:49.648Z,26.60
2018-08-16T13:53:18.886Z,26.60
2018-08-16T13:55:48.280Z,26.70
2018-08-16T13:58:17.617Z,26.70
2018-08-16T14:00:46.897Z,26.70
2018-08-16T14:08:14.168Z,27.50
2018-08-16T14:10:43.986Z,26.70
2018-08-16T14:18:11.564Z,27.60
2018-08-16T14:20:40.774Z,27.70
2018-08-16T14:23:10.231Z,27.20
2018-08-16T14:25:39.456Z,27.10
2018-08-16T14:28:08.716Z,27.00
2018-08-16T14:30:38.220Z,27.70
2018-08-16T14:33:07.473Z,27.30
2018-08-16T14:40:34.672Z,27.80
2018-08-16T14:45:32.958Z,27.00
2018-08-16T14:48:07.555Z,27.80
2018-08-16T14:55:35.796Z,27.50
2018-08-16T14:58:05.327Z,28.10
2018-08-16T15:00:34.608Z,28.20
2018-08-16T15:03:03.868Z,28.00
2018-08-16T15:05:33.091Z,28.00
2018-08-16T15:08:02.320Z,27.80
2018-08-16T15:13:00.494Z,27.40
2018-08-16T15:15:29.742Z,27.60
2018-08-16T15:17:58.990Z,28.00
2018-08-16T15:20:28.243Z,27.40
2018-08-16T15:22:57.519Z,27.70
2018-08-16T15:25:26.734Z,27.80
2018-08-16T15:27:55.941Z,26.70
2018-08-16T15:32:54.330Z,27.10
2018-08-16T15:37:52.523Z,27.40
2018-08-16T15:40:21.799Z,27.70
2018-08-16T15:42:51.033Z,27.80
2018-08-16T15:52:47.329Z,27.50
2018-08-16T15:55:16.653Z,27.90
2018-08-16T15:57:46.377Z,27.80
2018-08-16T16:00:15.617Z,27.30
2018-08-16T16:05:14.039Z,26.90
2018-08-16T16:10:12.231Z,26.90
2018-08-16T16:12:41.577Z,26.90
2018-08-16T16:17:40.224Z,27.50
2018-08-16T16:22:38.683Z,27.30
2018-08-16T16:27:37.721Z,26.90
2018-08-16T16:30:09.009Z,26.10
2018-08-16T16:32:38.666Z,26.60
2018-08-16T16:35:08.010Z,26.50
2018-08-16T16:42:36.623Z,26.70
2018-08-16T16:45:06.241Z,27.40
2018-08-16T16:47:42.402Z,27.60
2018-08-16T16:50:11.671Z,27.10
2018-08-16T16:52:40.937Z,27.60
2018-08-16T17:02:38.301Z,26.40
2018-08-16T17:05:07.501Z,27.00
2018-08-16T17:07:36.755Z,26.80
2018-08-16T17:10:07.558Z,27.00
2018-08-16T17:12:36.842Z,25.80
2018-08-16T17:15:06.982Z,26.60
2018-08-16T17:20:05.605Z,26.70
2018-08-16T17:22:34.861Z,26.00
2018-08-16T17:27:33.625Z,26.50
2018-08-16T17:32:32.071Z,26.40
2018-08-16T17:35:01.309Z,26.00
2018-08-16T17:37:30.570Z,25.90
2018-08-16T17:39:59.932Z,25.90
2018-08-16T17:42:29.163Z,26.10
2018-08-16T17:44:58.415Z,26.10
2018-08-16T17:47:27.641Z,26.20
2018-08-16T17:49:56.929Z,25.90
2018-08-16T17:52:26.210Z,25.80
2018-08-16T17:57:24.422Z,25.60
2018-08-16T17:59:53.730Z,26.00
2018-08-16T18:07:21.034Z,25.60
2018-08-16T18:12:19.310Z,25.80
2018-08-16T18:14:48.541Z,25.40
2018-08-16T18:17:17.911Z,25.20
2018-08-16T18:22:16.168Z,25.20
2018-08-16T18:27:14.456Z,24.90
2018-08-16T18:32:12.675Z,24.90
2018-08-16T18:34:41.911Z,24.90
2018-08-16T18:37:11.215Z,24.50
2018-08-16T18:39:40.435Z,24.60
2018-08-16T18:42:09.725Z,24.50
2018-08-16T18:47:07.984Z,24.40
2018-08-16T18:54:35.371Z,23.80
2018-08-16T18:57:04.614Z,24.00
2018-08-16T18:59:33.989Z,23.90
2018-08-16T19:02:03.137Z,23.90
2018-08-16T19:04:32.399Z,23.80
2018-08-16T19:07:01.676Z,23.80
2018-08-16T19:09:31.207Z,23.80
2018-08-16T19:12:00.458Z,23.40
2018-08-16T19:14:29.788Z,23.60
2018-08-16T19:16:59.083Z,23.60
2018-08-16T19:19:28.428Z,23.60
2018-08-16T19:21:57.636Z,23.60
2018-08-16T19:24:27.043Z,23.40
2018-08-16T19:26:57.134Z,23.70
2018-08-16T19:34:24.514Z,23.20
2018-08-16T19:36:53.849Z,23.20
2018-08-16T19:39:23.127Z,23.20
2018-08-16T19:41:52.857Z,23.20
2018-08-16T19:44:22.118Z,23.30
2018-08-16T19:46:51.382Z,23.10
2018-08-16T19:49:22.696Z,23.10
2018-08-16T19:54:21.269Z,23.00
2018-08-16T19:56:50.468Z,23.10
2018-08-16T19:59:19.718Z,23.60
2018-08-16T20:09:20.783Z,23.10
2018-08-16T20:11:50.050Z,23.00
2018-08-16T20:21:46.822Z,23.00
2018-08-16T20:26:45.158Z,23.00
2018-08-16T20:31:44.629Z,22.60
2018-08-16T20:34:14.074Z,23.00
2018-08-16T20:36:43.643Z,22.90
2018-08-16T20:39:12.837Z,22.60
2018-08-16T20:46:40.170Z,22.60
2018-08-16T20:49:09.393Z,22.70
2018-08-16T20:51:38.791Z,22.80
2018-08-16T20:54:08.276Z,22.50
2018-08-16T20:56:37.534Z,22.60
2018-08-16T20:59:06.842Z,22.60
2018-08-16T21:01:36.134Z,22.50
2018-08-16T21:06:34.425Z,22.40
2018-08-16T21:09:04.367Z,22.30
2018-08-16T21:11:33.549Z,22.20
2018-08-16T21:14:02.808Z,22.40
2018-08-16T21:16:32.025Z,22.30
2018-08-16T21:19:01.255Z,22.40
2018-08-16T21:21:30.470Z,22.10
2018-08-16T21:31:27.479Z,21.80
2018-08-16T21:41:23.804Z,22.20
2018-08-16T21:46:22.076Z,21.40
2018-08-16T21:48:51.304Z,21.30
2018-08-16T21:51:20.606Z,21.80
2018-08-16T21:58:48.010Z,22.20
2018-08-16T22:01:17.305Z,22.20
2018-08-16T22:03:46.592Z,22.20
2018-08-16T22:08:25.538Z,22.20
2018-08-16T22:10:54.782Z,22.40
2018-08-16T22:13:24.132Z,22.40
2018-08-16T22:15:53.353Z,22.50
2018-08-16T22:18:22.578Z,22.30
2018-08-16T22:20:51.842Z,22.40
2018-08-16T22:25:50.093Z,22.50
2018-08-16T22:28:19.317Z,22.20
2018-08-16T22:33:17.523Z,21.90
2018-08-16T22:35:46.741Z,22.70
2018-08-16T22:38:15.986Z,22.00
2018-08-16T22:40:45.201Z,21.90
2018-08-16T22:43:14.429Z,22.10
2018-08-16T22:48:12.653Z,22.00
2018-08-16T22:50:41.864Z,22.10
2018-08-16T22:55:40.113Z,22.00
2018-08-16T22:58:09.348Z,22.10
2018-08-16T23:00:38.574Z,22.00
2018-08-16T23:03:07.840Z,22.00
2018-08-16T23:05:37.055Z,22.00
2018-08-16T23:08:06.265Z,21.90
2018-08-16T23:13:04.588Z,21.80
2018-08-16T23:15:33.918Z,22.10
2018-08-16T23:18:03.148Z,21.70
2018-08-16T23:20:32.437Z,21.70
2018-08-16T23:25:30.866Z,21.40
2018-08-16T23:28:00.121Z,21.80
2018-08-16T23:30:29.329Z,21.40
2018-08-16T23:32:58.578Z,21.50
2018-08-16T23:35:27.785Z,21.40
2018-08-16T23:37:57.114Z,21.40
2018-08-16T23:40:26.459Z,21.40
2018-08-16T23:42:55.895Z,21.30
2018-08-16T23:45:25.170Z,21.30
2018-08-16T23:48:11.473Z,21.10
2018-08-16T23:50:40.766Z,21.20
2018-08-16T23:53:10.013Z,21.20
2018-08-16T23:58:08.427Z,21.10
